Time;durP1;ratioP1;P1;durP2;ratioP2;P2;SDS_P1;SDS_P2;PMS_P1;PMS_P2;Temp;Humidity;BMP_temperature;BMP_pressure;BME280_temperature;BME280_humidity;BME280_pressure;Samples;Min_cycle;Max_cycle;Signal;HPM_P1;HPM_P2
2022/10/02 00:02:27;;;;;;;;;10.00;9.33;;;27.35;100413.76;;;;117831;1187;25628;-64
2022/10/02 00:04:58;;;;;;;;;12.25;10.75;;;27.31;100407.15;;;;117472;1188;25271;-64
2022/10/02 00:07:34;;;;;;;;;15.25;12.75;;;27.28;100414.08;;;;117878;1188;25660;-64
2022/10/02 00:10:10;;;;;;;;;14.50;10.50;;;27.28;100411.30;;;;117855;1188;24756;-64
2022/10/02 00:12:38;;;;;;;;;10.00;10.00;;;27.27;100409.58;;;;117513;1187;25280;-63
2022/10/02 00:15:15;;;;;;;;;9.00;9.00;;;27.26;100400.52;;;;117495;1188;25583;-64
2022/10/02 00:17:47;;;;;;;;;8.75;7.75;;;27.25;100406.00;;;;117881;1187;25333;-64
2022/10/02 00:20:17;;;;;;;;;14.00;10.67;;;27.27;100388.34;;;;117494;1189;25075;-64
2022/10/02 00:22:55;;;;;;;;;14.75;8.50;;;27.25;100368.94;;;;117882;1188;25005;-64
2022/10/02 00:26:08;;;;;;;;;11.75;11.75;;;27.25;100400.58;;;;117903;1187;25140;-63
2022/10/02 00:29:05;;;;;;;;;8.75;8.00;;;27.32;100406.98;;;;117139;1192;25338;-64
2022/10/02 00:31:40;;;;;;;;;9.00;9.00;;;27.31;100392.60;;;;117867;1187;24807;-65
2022/10/02 00:34:08;;;;;;;;;11.75;8.25;;;27.25;100339.88;;;;117858;1187;25707;-65
2022/10/02 00:37:09;;;;;;;;;13.67;5.33;;;27.23;100303.25;;;;117918;1186;25627;-64
2022/10/02 00:39:55;;;;;;;;;11.33;8.67;;;27.24;100302.86;;;;117859;1188;25603;-64
2022/10/02 00:42:44;;;;;;;;;7.75;7.25;;;27.18;100305.51;;;;117759;1186;25374;-65
2022/10/02 00:45:25;;;;;;;;;8.75;6.75;;;27.17;100293.17;;;;117648;1188;25105;-63
2022/10/02 00:48:10;;;;;;;;;7.25;7.25;;;27.13;100286.87;;;;117774;1188;25155;-64
2022/10/02 00:50:47;;;;;;;;;9.25;6.50;;;27.14;100265.34;;;;117860;1186;25573;-64
2022/10/02 00:53:33;;;;;;;;;10.00;10.00;;;27.11;100251.74;;;;117877;1188;25442;-64
2022/10/02 00:56:04;;;;;;;;;10.75;10.50;;;27.12;100258.13;;;;117867;1187;25433;-64
2022/10/02 00:58:47;;;;;;;;;10.33;9.00;;;27.10;100239.88;;;;117869;1187;25318;-65
2022/10/02 01:01:23;;;;;;;;;6.67;5.33;;;27.08;100221.38;;;;117886;1187;24790;-64
2022/10/02 01:03:53;;;;;;;;;8.25;7.75;;;27.06;100218.53;;;;117931;1188;25019;-64
2022/10/02 01:06:26;;;;;;;;;9.00;6.00;;;27.08;100224.59;;;;117431;1189;25648;-65
2022/10/02 01:08:55;;;;;;;;;6.75;5.00;;;27.07;100232.26;;;;117875;1186;25291;-64
2022/10/02 01:11:25;;;;;;;;;8.75;7.50;;;27.07;100241.45;;;;117928;1187;25382;-65
2022/10/02 01:13:54;;;;;;;;;11.00;8.50;;;27.07;100241.16;;;;117912;1188;25598;-65
2022/10/02 01:16:22;;;;;;;;;9.00;6.67;;;27.07;100236.09;;;;117481;1188;25616;-65
2022/10/02 01:18:51;;;;;;;;;9.00;6.50;;;27.05;100237.18;;;;117524;1189;25287;-65
2022/10/02 01:21:42;;;;;;;;;9.50;7.25;;;27.03;100231.29;;;;117512;1187;25248;-66
2022/10/02 01:24:29;;;;;;;;;7.50;5.25;;;27.04;100229.80;;;;117888;1188;25335;-70
2022/10/02 01:26:57;;;;;;;;;7.50;4.75;;;27.07;100225.41;;;;117854;1188;24857;-68
2022/10/02 01:29:26;;;;;;;;;8.25;6.25;;;27.05;100211.89;;;;117480;1189;25200;-66
2022/10/02 01:31:55;;;;;;;;;4.00;4.00;;;27.03;100198.45;;;;117441;1187;25483;-70
2022/10/02 01:34:24;;;;;;;;;6.25;5.50;;;27.03;100195.30;;;;117530;1187;24971;-74
2022/10/02 01:36:52;;;;;;;;;5.67;5.00;;;27.03;100188.29;;;;117520;1188;25341;-73
2022/10/02 01:39:21;;;;;;;;;6.00;6.00;;;27.02;100179.14;;;;117530;1189;25809;-73
2022/10/02 01:41:49;;;;;;;;;4.50;4.00;;;27.00;100166.48;;;;117507;1189;25285;-73
2022/10/02 01:44:18;;;;;;;;;6.50;5.75;;;26.99;100163.20;;;;117875;1187;24832;-65
2022/10/02 01:46:52;;;;;;;;;5.50;3.75;;;26.98;100184.24;;;;117463;1188;24897;-65
2022/10/02 01:49:39;;;;;;;;;5.00;5.00;;;26.96;100184.52;;;;117861;1188;26250;-65
2022/10/02 01:52:30;;;;;;;;;8.50;3.75;;;26.97;100180.90;;;;117861;1188;25565;-65
2022/10/02 01:55:07;;;;;;;;;3.75;3.75;;;26.99;100177.95;;;;117878;1188;24794;-65
2022/10/02 01:57:47;;;;;;;;;3.00;2.50;;;26.96;100181.23;;;;117888;1188;24902;-65
2022/10/02 02:00:21;;;;;;;;;3.00;3.00;;;26.95;100172.80;;;;117880;1188;24963;-65
2022/10/02 02:03:08;;;;;;;;;3.50;3.50;;;26.94;100171.29;;;;117918;1188;25466;-66
2022/10/02 02:05:51;;;;;;;;;7.50;6.00;;;26.94;100166.83;;;;117891;1188;26520;-64
2022/10/02 02:08:29;;;;;;;;;3.00;3.00;;;26.95;100174.58;;;;117806;1188;25162;-65
2022/10/02 02:11:23;;;;;;;;;5.50;4.50;;;26.95;100179.61;;;;117863;1187;25593;-64
2022/10/02 02:14:15;;;;;;;;;3.33;3.33;;;27.01;100172.26;;;;117476;1189;24903;-64
2022/10/02 02:16:49;;;;;;;;;8.00;4.67;;;27.02;100174.00;;;;117757;1188;25285;-64
2022/10/02 02:19:17;;;;;;;;;7.00;4.50;;;26.98;100175.10;;;;117842;1188;25346;-65
2022/10/02 02:21:52;;;;;;;;;3.25;2.75;;;26.96;100173.05;;;;117831;1187;25206;-64
2022/10/02 02:25:06;;;;;;;;;5.25;4.00;;;26.92;100175.54;;;;117860;1187;25676;-64
2022/10/02 02:27:39;;;;;;;;;6.00;4.00;;;27.06;100174.27;;;;117846;1186;25650;-66
2022/10/02 02:30:11;;;;;;;;;7.00;7.00;;;27.03;100175.70;;;;117498;1188;24952;-64
2022/10/02 02:32:49;;;;;;;;;8.00;5.25;;;27.00;100165.02;;;;117498;1189;25072;-64
2022/10/02 02:35:21;;;;;;;;;7.50;6.50;;;26.99;100165.41;;;;117863;1187;25329;-65
2022/10/02 02:37:52;;;;;;;;;4.00;4.00;;;26.99;100161.48;;;;117880;1188;25032;-65
2022/10/02 02:40:27;;;;;;;;;6.75;5.50;;;26.97;100163.06;;;;117529;1189;25224;-65
2022/10/02 02:43:03;;;;;;;;;7.75;6.75;;;26.96;100162.07;;;;117523;1188;25519;-65
2022/10/02 02:45:37;;;;;;;;;6.33;4.67;;;26.94;100158.56;;;;117852;1187;25678;-65
2022/10/02 02:48:11;;;;;;;;;3.33;3.33;;;26.93;100154.54;;;;117895;1188;25186;-64
2022/10/02 02:50:44;;;;;;;;;4.67;4.67;;;26.92;100159.98;;;;117891;1188;24743;-65
2022/10/02 02:53:17;;;;;;;;;3.50;3.50;;;26.93;100172.10;;;;117855;1188;25499;-65
2022/10/02 02:55:51;;;;;;;;;10.67;7.00;;;26.91;100162.31;;;;117508;1189;25548;-65
2022/10/02 02:58:19;;;;;;;;;2.00;2.00;;;26.91;100148.96;;;;117878;1187;25029;-64
2022/10/02 03:00:48;;;;;;;;;6.50;5.75;;;26.90;100142.35;;;;117861;1187;24958;-65
2022/10/02 03:03:17;;;;;;;;;3.50;3.50;;;26.88;100136.27;;;;117856;1188;25536;-64
2022/10/02 03:05:52;;;;;;;;;4.75;2.75;;;26.85;100125.28;;;;117545;1188;25104;-64
2022/10/02 03:08:30;;;;;;;;;5.50;4.50;;;26.87;100126.40;;;;117877;1188;25176;-65
2022/10/02 03:11:27;;;;;;;;;6.25;4.75;;;26.87;100120.13;;;;117908;1187;25302;-65
2022/10/02 03:14:29;;;;;;;;;8.25;5.50;;;26.94;100118.41;;;;117440;1189;25644;-65
2022/10/02 03:17:19;;;;;;;;;4.00;4.00;;;26.94;100127.09;;;;117833;1186;25038;-64
2022/10/02 03:19:59;;;;;;;;;5.75;3.00;;;26.88;100128.36;;;;117848;1187;25365;-64
2022/10/02 03:22:49;;;;;;;;;7.25;6.25;;;26.84;100132.73;;;;117891;1187;24833;-64
2022/10/02 03:25:30;;;;;;;;;5.75;5.75;;;26.82;100131.13;;;;117855;1187;25764;-64
2022/10/02 03:28:04;;;;;;;;;3.50;3.50;;;26.82;100129.95;;;;117850;1187;24775;-64
2022/10/02 03:30:34;;;;;;;;;4.50;4.25;;;26.82;100125.07;;;;117821;1186;24856;-65
2022/10/02 03:33:04;;;;;;;;;5.25;4.50;;;26.80;100124.15;;;;117445;1189;24911;-65
2022/10/02 03:35:32;;;;;;;;;7.50;5.25;;;26.80;100131.48;;;;117427;1190;25062;-65
2022/10/02 03:38:04;;;;;;;;;6.25;5.25;;;26.81;100133.92;;;;117540;1187;24780;-65
2022/10/02 03:40:33;;;;;;;;;10.00;7.25;;;26.81;100129.70;;;;117860;1186;25481;-65
2022/10/02 03:43:01;;;;;;;;;9.50;5.50;;;26.81;100127.79;;;;117551;1188;24929;-65
2022/10/02 03:45:29;;;;;;;;;5.50;5.50;;;26.81;100125.96;;;;117872;1187;25062;-65
2022/10/02 03:48:18;;;;;;;;;7.00;6.25;;;26.86;100129.99;;;;117854;1188;24961;-64
2022/10/02 03:50:46;;;;;;;;;8.25;4.75;;;26.87;100131.42;;;;117861;1188;24886;-66
2022/10/02 03:53:17;;;;;;;;;9.33;6.00;;;26.84;100134.24;;;;117886;1187;25310;-65
2022/10/02 03:56:10;;;;;;;;;9.25;9.00;;;26.83;100142.15;;;;117463;1189;25153;-64
2022/10/02 03:58:44;;;;;;;;;10.67;8.00;;;26.91;100140.39;;;;117515;1188;25264;-65
2022/10/02 04:01:30;;;;;;;;;8.50;7.50;;;26.91;100133.55;;;;117870;1188;25207;-64
2022/10/02 04:04:16;;;;;;;;;5.25;4.00;;;26.90;100129.92;;;;117870;1188;25175;-64
2022/10/02 04:06:50;;;;;;;;;8.25;8.00;;;26.92;100125.61;;;;117867;1188;25396;-64
2022/10/02 04:09:29;;;;;;;;;7.50;7.00;;;26.88;100119.86;;;;117512;1189;25358;-64
2022/10/02 04:12:12;;;;;;;;;6.50;4.25;;;26.84;100109.33;;;;117524;1189;25586;-64
2022/10/02 04:14:50;;;;;;;;;4.00;3.25;;;26.88;100116.59;;;;117496;1187;24711;-64
2022/10/02 04:17:23;;;;;;;;;7.75;7.00;;;26.89;100125.02;;;;117851;1188;25548;-64
2022/10/02 04:19:58;;;;;;;;;11.00;8.00;;;26.85;100125.68;;;;117814;1186;24700;-64
2022/10/02 04:22:38;;;;;;;;;6.00;6.00;;;26.87;100120.36;;;;117658;1188;25443;-63
2022/10/02 04:25:16;;;;;;;;;9.25;6.50;;;26.85;100116.79;;;;117645;1188;26463;-63
2022/10/02 04:27:51;;;;;;;;;7.75;7.75;;;26.84;100116.42;;;;117676;1189;24714;-64
2022/10/02 04:30:20;;;;;;;;;8.33;4.00;;;26.82;100115.10;;;;117829;1188;25212;-65
2022/10/02 04:32:49;;;;;;;;;7.00;6.50;;;26.80;100123.11;;;;117863;1186;25199;-64
2022/10/02 04:36:19;;;;;;;;;8.50;6.25;;;26.80;100131.47;;;;117508;1188;25659;-64
2022/10/02 04:39:13;;;;;;;;;9.00;8.00;;;26.94;100138.90;;;;116996;1194;24985;-63
2022/10/02 04:42:05;;;;;;;;;13.00;9.75;;;26.92;100134.01;;;;117893;1188;25123;-64
2022/10/02 04:44:43;;;;;;;;;10.75;8.25;;;26.89;100135.81;;;;117899;1188;25376;-64
2022/10/02 04:47:42;;;;;;;;;9.75;9.75;;;26.82;100133.16;;;;117892;1188;25172;-64
2022/10/02 04:50:34;;;;;;;;;10.00;10.00;;;26.82;100133.90;;;;117897;1187;25287;-63
2022/10/02 04:53:11;;;;;;;;;12.00;8.67;;;26.90;100143.52;;;;117437;1189;25756;-63
2022/10/02 04:55:54;;;;;;;;;8.67;7.00;;;26.79;100129.85;;;;117826;1187;24820;-64
2022/10/02 04:58:25;;;;;;;;;9.00;9.00;;;26.82;100132.86;;;;117463;1189;25340;-64
2022/10/02 05:01:12;;;;;;;;;10.67;9.00;;;26.78;100139.36;;;;117426;1188;25453;-64
2022/10/02 05:03:55;;;;;;;;;5.25;5.25;;;26.78;100159.27;;;;117430;1189;24885;-65
2022/10/02 05:06:56;;;;;;;;;8.50;8.50;;;26.69;100172.42;;;;117424;1187;25340;-63
2022/10/02 05:09:32;;;;;;;;;9.67;8.00;;;26.66;100178.11;;;;117427;1188;25430;-65
2022/10/02 05:12:06;;;;;;;;;8.00;7.00;;;26.65;100181.52;;;;117479;1188;26266;-64
2022/10/02 05:15:22;;;;;;;;;10.00;9.00;;;26.68;100194.74;;;;117873;1187;24992;-63
2022/10/02 05:17:56;;;;;;;;;9.50;8.00;;;26.76;100189.48;;;;117691;1188;25104;-64
2022/10/02 05:20:24;;;;;;;;;12.67;9.67;;;26.73;100191.81;;;;117891;1188;25192;-64
2022/10/02 05:23:18;;;;;;;;;10.50;10.50;;;26.75;100195.99;;;;117869;1188;25365;-64
2022/10/02 05:25:55;;;;;;;;;12.33;10.33;;;26.76;100190.27;;;;117877;1188;25092;-64
2022/10/02 05:28:42;;;;;;;;;14.00;9.50;;;26.72;100188.96;;;;117853;1188;25321;-64
2022/10/02 05:31:37;;;;;;;;;7.25;7.25;;;26.73;100193.27;;;;117901;1188;25406;-62
2022/10/02 05:34:30;;;;;;;;;7.00;5.67;;;26.71;100195.09;;;;117867;1187;25176;-63
2022/10/02 05:37:17;;;;;;;;;11.00;9.00;;;26.71;100194.23;;;;117878;1186;25466;-64
2022/10/02 05:39:56;;;;;;;;;10.33;10.00;;;26.69;100200.73;;;;117872;1187;24973;-63
2022/10/02 05:42:35;;;;;;;;;13.50;11.00;;;26.70;100202.73;;;;117497;1189;25426;-63
2022/10/02 05:45:25;;;;;;;;;9.50;8.75;;;26.76;100212.75;;;;117498;1188;25154;-63
2022/10/02 05:48:02;;;;;;;;;8.75;8.25;;;26.75;100219.20;;;;117912;1186;24831;-63
2022/10/02 05:50:33;;;;;;;;;10.75;10.25;;;26.75;100223.30;;;;117851;1188;24931;-63
2022/10/02 05:53:18;;;;;;;;;17.50;11.75;;;26.74;100224.16;;;;117426;1190;25437;-64
2022/10/02 05:55:54;;;;;;;;;9.67;9.67;;;26.73;100225.40;;;;117883;1186;25525;-62
2022/10/02 05:59:11;;;;;;;;;15.67;9.67;;;26.77;100227.09;;;;117865;1187;25186;-63
2022/10/02 06:01:45;;;;;;;;;9.75;8.25;;;26.84;100225.83;;;;117702;1186;25652;-63
2022/10/02 06:04:33;;;;;;;;;10.67;10.67;;;26.84;100226.20;;;;117862;1188;25006;-62
2022/10/02 06:07:07;;;;;;;;;11.25;9.50;;;26.81;100219.11;;;;117870;1188;25101;-63
2022/10/02 06:09:48;;;;;;;;;14.00;8.00;;;26.79;100214.69;;;;117506;1189;25308;-62
2022/10/02 06:12:25;;;;;;;;;8.75;7.75;;;26.78;100209.21;;;;117897;1188;25309;-63
2022/10/02 06:15:03;;;;;;;;;12.00;10.50;;;26.81;100201.19;;;;117520;1188;25520;-62
2022/10/02 06:17:49;;;;;;;;;7.67;6.33;;;26.81;100192.96;;;;117860;1187;25750;-60
2022/10/02 06:20:40;;;;;;;;;13.50;11.25;;;26.82;100198.90;;;;117800;1187;24778;-61
2022/10/02 06:23:19;;;;;;;;;10.75;9.50;;;26.93;100203.85;;;;117534;1188;24817;-63
2022/10/02 06:26:00;;;;;;;;;12.00;11.25;;;26.94;100200.91;;;;117856;1188;24790;-63
2022/10/02 06:28:35;;;;;;;;;18.00;13.75;;;27.02;100196.88;;;;117523;1187;24877;-65
2022/10/02 06:31:10;;;;;;;;;49.00;40.00;;;27.00;100200.61;;;;117927;1188;24690;-65
2022/10/02 06:33:39;;;;;;;;;35.75;32.50;;;27.13;100200.64;;;;117507;1189;25602;-64
2022/10/02 06:36:20;;;;;;;;;29.50;25.50;;;27.12;100209.17;;;;117830;1188;25309;-62
2022/10/02 06:39:20;;;;;;;;;27.33;22.67;;;27.05;100211.04;;;;117602;1188;25314;-63
2022/10/02 06:42:26;;;;;;;;;28.00;23.67;;;27.11;100207.08;;;;117692;1188;25253;-61
2022/10/02 06:45:07;;;;;;;;;20.67;17.67;;;27.17;100221.11;;;;117675;1187;25560;-61
2022/10/02 06:47:52;;;;;;;;;28.00;20.67;;;27.22;100228.19;;;;117685;1187;25575;-62
2022/10/02 06:50:29;;;;;;;;;25.50;17.75;;;27.19;100230.46;;;;117489;1188;25462;-63
2022/10/02 06:53:19;;;;;;;;;17.25;17.25;;;27.17;100239.14;;;;117820;1188;25707;-72
2022/10/02 06:56:02;;;;;;;;;18.00;14.67;;;27.14;100244.22;;;;117838;1188;25549;-65
2022/10/02 06:58:39;;;;;;;;;16.25;14.75;;;27.17;100248.94;;;;117861;1187;24907;-67
2022/10/02 07:01:46;;;;;;;;;18.25;13.25;;;27.20;100253.11;;;;117831;1186;25594;-65
2022/10/02 07:04:24;;;;;;;;;18.00;15.50;;;27.32;100256.55;;;;117673;1188;25309;-70
2022/10/02 07:07:20;;;;;;;;;13.00;12.75;;;27.31;100259.61;;;;117807;1189;25587;-63
2022/10/02 07:10:08;;;;;;;;;18.00;14.25;;;27.35;100267.29;;;;117863;1188;25135;-65
2022/10/02 07:12:50;;;;;;;;;20.33;15.33;;;27.43;100269.07;;;;117873;1186;25011;-67
2022/10/02 07:15:37;;;;;;;;;11.67;11.67;;;27.43;100273.87;;;;117421;1189;25416;-63
2022/10/02 07:18:20;;;;;;;;;18.00;14.50;;;27.41;100274.58;;;;117863;1186;24885;-62
2022/10/02 07:21:03;;;;;;;;;15.00;14.00;;;27.29;100279.67;;;;117417;1189;25682;-63
2022/10/02 07:23:49;;;;;;;;;15.75;14.75;;;27.43;100288.61;;;;117380;1190;25420;-63
2022/10/02 07:26:46;;;;;;;;;9.33;9.33;;;27.41;100300.96;;;;117499;1189;24857;-60
2022/10/02 07:29:26;;;;;;;;;15.00;11.25;;;27.44;100305.40;;;;117820;1186;25250;-61
2022/10/02 07:32:13;;;;;;;;;12.50;10.00;;;27.48;100298.32;;;;117463;1189;25550;-62
2022/10/02 07:35:18;;;;;;;;;5.75;4.75;;;27.60;100306.61;;;;117617;1188;25300;-66
2022/10/02 07:38:15;;;;;;;;;8.00;4.00;;;27.54;100308.26;;;;117384;1189;24856;-64
2022/10/02 07:40:49;;;;;;;;;6.25;4.75;;;27.52;100307.27;;;;117854;1186;24865;-64
2022/10/02 07:43:34;;;;;;;;;6.00;5.75;;;27.53;100307.27;;;;117855;1187;25397;-63
2022/10/02 07:46:20;;;;;;;;;5.50;4.00;;;27.61;100308.26;;;;117895;1188;25674;-64
2022/10/02 07:49:09;;;;;;;;;8.25;4.00;;;27.56;100311.64;;;;117833;1187;24886;-64
2022/10/02 07:52:01;;;;;;;;;7.33;4.67;;;27.60;100314.48;;;;117449;1189;25550;-64
2022/10/02 07:55:23;;;;;;;;;6.00;4.50;;;27.58;100316.50;;;;117871;1187;24689;-64
2022/10/02 07:58:04;;;;;;;;;3.50;3.50;;;27.63;100320.92;;;;117382;1189;24955;-62
2022/10/02 08:01:01;;;;;;;;;8.00;5.25;;;27.62;100321.75;;;;117441;1189;25567;-64
2022/10/02 08:03:44;;;;;;;;;3.67;3.67;;;27.67;100324.77;;;;117722;1188;25483;-64
2022/10/02 08:06:13;;;;;;;;;5.00;5.00;;;27.72;100331.38;;;;117840;1188;25040;-63
2022/10/02 08:08:44;;;;;;;;;5.25;5.25;;;27.73;100332.44;;;;117484;1189;24954;-65
2022/10/02 08:11:43;;;;;;;;;3.00;2.67;;;27.75;100332.60;;;;117855;1188;25339;-64
2022/10/02 08:14:21;;;;;;;;;5.50;4.00;;;27.80;100334.09;;;;117815;1188;24862;-63
2022/10/02 08:16:53;;;;;;;;;7.00;3.00;;;27.79;100333.98;;;;117868;1186;24810;-64
2022/10/02 08:19:39;;;;;;;;;7.00;6.75;;;27.77;100337.40;;;;117864;1187;25486;-63
2022/10/02 08:22:28;;;;;;;;;7.25;5.25;;;27.68;100343.40;;;;117851;1187;25592;-64
2022/10/02 08:25:03;;;;;;;;;3.25;3.25;;;27.70;100338.27;;;;117877;1188;25010;-64
2022/10/02 08:27:45;;;;;;;;;4.33;2.67;;;27.71;100342.10;;;;117874;1188;24871;-64
2022/10/02 08:30:14;;;;;;;;;5.50;5.25;;;27.70;100343.77;;;;117869;1187;25312;-64
2022/10/02 08:32:42;;;;;;;;;4.50;3.00;;;27.69;100342.68;;;;117537;1188;24978;-64
2022/10/02 08:35:13;;;;;;;;;5.75;4.75;;;27.67;100349.31;;;;117517;1189;24732;-64
2022/10/02 08:38:00;;;;;;;;;6.25;6.25;;;27.65;100356.27;;;;117865;1187;25399;-64
2022/10/02 08:40:32;;;;;;;;;5.00;5.00;;;27.66;100354.48;;;;117844;1187;25283;-64
2022/10/02 08:43:18;;;;;;;;;4.75;4.00;;;27.64;100356.58;;;;117874;1187;25390;-63
2022/10/02 08:46:12;;;;;;;;;5.00;5.00;;;27.66;100362.95;;;;117872;1188;24980;-64
2022/10/02 08:49:05;;;;;;;;;4.00;3.00;;;27.67;100367.35;;;;117518;1189;24729;-64
2022/10/02 08:52:01;;;;;;;;;3.75;3.75;;;27.65;100366.77;;;;117658;1186;25198;-63
2022/10/02 08:54:49;;;;;;;;;4.00;4.00;;;27.68;100369.15;;;;117829;1187;25257;-63
2022/10/02 08:57:36;;;;;;;;;3.50;3.50;;;27.68;100372.55;;;;117871;1188;25530;-64
2022/10/02 09:00:24;;;;;;;;;3.75;3.75;;;27.70;100377.05;;;;117866;1188;25226;-64
2022/10/02 09:03:23;;;;;;;;;4.00;4.00;;;27.72;100377.34;;;;117840;1186;25295;-65
2022/10/02 09:06:12;;;;;;;;;7.50;3.25;;;27.73;100398.21;;;;117867;1187;25310;-65
2022/10/02 09:08:50;;;;;;;;;5.00;5.00;;;27.72;100401.80;;;;117842;1188;25036;-66
2022/10/02 09:11:27;;;;;;;;;3.00;3.00;;;27.70;100407.10;;;;117856;1187;25111;-65
2022/10/02 09:14:09;;;;;;;;;5.25;3.00;;;27.69;100411.27;;;;117860;1188;24696;-65
2022/10/02 09:17:01;;;;;;;;;3.25;3.25;;;27.68;100408.48;;;;117839;1186;25602;-65
2022/10/02 09:19:44;;;;;;;;;3.75;3.75;;;27.68;100410.65;;;;117441;1190;24819;-64
2022/10/02 09:22:51;;;;;;;;;3.33;3.33;;;27.68;100415.58;;;;117835;1187;24887;-64
2022/10/02 09:25:41;;;;;;;;;3.00;3.00;;;27.77;100417.77;;;;117818;1187;24914;-64
2022/10/02 09:28:16;;;;;;;;;2.25;2.00;;;27.77;100422.64;;;;117797;1188;24736;-66
2022/10/02 09:31:13;;;;;;;;;6.50;4.75;;;27.73;100430.99;;;;117850;1187;25154;-65
2022/10/02 09:34:05;;;;;;;;;6.50;4.50;;;27.76;100433.20;;;;117834;1188;24839;-65
2022/10/02 09:36:44;;;;;;;;;2.75;2.75;;;27.78;100432.52;;;;117436;1189;25655;-65
2022/10/02 09:39:25;;;;;;;;;5.00;3.75;;;27.78;100435.13;;;;117836;1189;25182;-64
2022/10/02 09:42:13;;;;;;;;;4.75;2.00;;;27.83;100438.73;;;;117877;1187;25334;-64
2022/10/02 09:44:45;;;;;;;;;2.00;2.00;;;27.85;100438.20;;;;117852;1188;25062;-65
2022/10/02 09:47:25;;;;;;;;;3.25;3.25;;;27.81;100442.64;;;;117862;1189;26057;-65
2022/10/02 09:50:38;;;;;;;;;3.00;2.00;;;27.81;100443.84;;;;117413;1188;25096;-64
2022/10/02 09:53:18;;;;;;;;;2.50;2.50;;;27.86;100443.82;;;;117652;1188;25540;-64
2022/10/02 09:55:50;;;;;;;;;3.00;3.00;;;27.88;100444.38;;;;117855;1187;24949;-64
2022/10/02 09:58:27;;;;;;;;;4.33;4.33;;;27.88;100444.10;;;;117872;1188;25181;-64
2022/10/02 10:01:16;;;;;;;;;4.00;4.00;;;27.87;100444.66;;;;117817;1188;25602;-64
2022/10/02 10:04:07;;;;;;;;;4.25;4.25;;;27.86;100440.30;;;;117825;1188;24856;-64
2022/10/02 10:07:05;;;;;;;;;3.00;3.00;;;27.89;100433.64;;;;117419;1189;25113;-64
2022/10/02 10:09:58;;;;;;;;;5.00;4.00;;;27.91;100438.91;;;;117492;1189;25769;-65
2022/10/02 10:12:48;;;;;;;;;3.75;3.75;;;27.95;100436.17;;;;117433;1188;25546;-65
2022/10/02 10:15:28;;;;;;;;;5.75;3.00;;;27.95;100435.85;;;;117445;1188;24695;-66
2022/10/02 10:18:11;;;;;;;;;2.25;2.00;;;27.93;100441.54;;;;117855;1187;25252;-64
2022/10/02 10:21:04;;;;;;;;;2.00;2.00;;;27.89;100448.56;;;;117842;1188;25591;-65
2022/10/02 10:23:46;;;;;;;;;3.00;3.00;;;27.89;100450.41;;;;117846;1188;25451;-65
2022/10/02 10:26:41;;;;;;;;;2.50;2.50;;;27.88;100447.28;;;;117856;1187;25582;-65
2022/10/02 10:29:30;;;;;;;;;2.00;2.00;;;27.90;100441.42;;;;117492;1188;25492;-65
2022/10/02 10:32:37;;;;;;;;;4.50;3.00;;;27.91;100447.97;;;;117848;1187;25508;-65
2022/10/02 10:35:30;;;;;;;;;2.25;2.25;;;27.93;100444.87;;;;117418;1189;25426;-64
2022/10/02 10:41:10;;;;;;;;;2.00;2.00;;;27.88;100446.56;;;;117843;1187;24953;-65
2022/10/02 10:43:57;;;;;;;;;4.50;2.25;;;27.87;100448.84;;;;117849;1188;24933;-65
2022/10/02 10:46:25;;;;;;;;;2.25;2.25;;;27.86;100446.00;;;;117793;1188;25533;-65
2022/10/02 10:49:42;;;;;;;;;3.75;3.00;;;27.86;100446.59;;;;117837;1188;24738;-65
2022/10/02 10:52:33;;;;;;;;;4.00;3.00;;;27.93;100451.30;;;;117388;1190;25603;-65
2022/10/02 10:55:18;;;;;;;;;2.00;2.00;;;27.94;100444.84;;;;117862;1188;25700;-65
2022/10/02 10:57:55;;;;;;;;;3.25;3.25;;;27.93;100451.93;;;;117862;1188;25078;-65
2022/10/02 11:01:05;;;;;;;;;2.25;2.25;;;27.91;100445.45;;;;117868;1188;24802;-65
2022/10/02 11:04:09;;;;;;;;;4.25;4.25;;;27.97;100444.85;;;;117434;1190;26191;-65
2022/10/02 11:06:44;;;;;;;;;3.00;1.33;;;27.99;100445.27;;;;117829;1187;25352;-65
2022/10/02 11:09:28;;;;;;;;;3.00;3.00;;;27.95;100441.88;;;;117880;1186;25595;-64
2022/10/02 11:12:21;;;;;;;;;2.50;2.50;;;27.92;100442.88;;;;117843;1188;24969;-64
2022/10/02 11:14:58;;;;;;;;;2.50;2.50;;;27.93;100436.71;;;;117653;1188;25128;-64
2022/10/02 11:17:33;;;;;;;;;2.25;2.25;;;27.92;100422.45;;;;117860;1187;25432;-65
2022/10/02 11:20:31;;;;;;;;;5.00;2.00;;;27.90;100423.66;;;;117833;1187;25732;-65
2022/10/02 11:23:26;;;;;;;;;3.00;3.00;;;27.92;100421.48;;;;117836;1187;25672;-65
2022/10/02 11:26:00;;;;;;;;;3.50;3.50;;;27.90;100429.86;;;;117843;1188;25384;-64
2022/10/02 11:28:59;;;;;;;;;3.75;2.75;;;27.86;100435.35;;;;117841;1186;25509;-65
2022/10/02 11:31:49;;;;;;;;;3.00;3.00;;;27.92;100436.67;;;;117845;1186;25042;-64
2022/10/02 11:34:45;;;;;;;;;2.50;2.00;;;27.94;100434.64;;;;117853;1187;25271;-65
2022/10/02 11:37:48;;;;;;;;;4.50;2.75;;;27.90;100435.70;;;;117654;1188;25387;-64
2022/10/02 11:40:30;;;;;;;;;4.00;4.00;;;27.88;100441.89;;;;117456;1189;25227;-64
2022/10/02 11:43:17;;;;;;;;;3.00;3.00;;;27.90;100450.43;;;;117844;1188;25465;-64
2022/10/02 11:46:16;;;;;;;;;4.00;3.00;;;27.89;100447.94;;;;117854;1188;25013;-64
2022/10/02 11:48:59;;;;;;;;;2.25;2.25;;;27.89;100445.58;;;;117893;1188;24668;-64
2022/10/02 11:51:36;;;;;;;;;4.00;3.00;;;27.90;100450.71;;;;117856;1188;24881;-64
2022/10/02 11:54:14;;;;;;;;;3.75;2.50;;;27.89;100452.05;;;;117831;1188;25295;-64
2022/10/02 11:57:07;;;;;;;;;2.00;2.00;;;27.86;100457.90;;;;117439;1190;25454;-66
2022/10/02 12:00:05;;;;;;;;;2.00;2.00;;;27.88;100461.52;;;;117878;1188;24999;-65
2022/10/02 12:02:44;;;;;;;;;2.67;2.67;;;27.91;100461.71;;;;117425;1189;25052;-64
2022/10/02 12:05:37;;;;;;;;;2.00;2.00;;;27.91;100457.49;;;;117706;1186;25084;-66
2022/10/02 12:08:28;;;;;;;;;2.25;2.25;;;27.89;100454.73;;;;117796;1188;25482;-68
2022/10/02 12:11:24;;;;;;;;;5.00;2.00;;;27.89;100460.30;;;;117821;1188;24992;-67
2022/10/02 12:14:03;;;;;;;;;3.25;2.00;;;27.90;100463.74;;;;117437;1190;25104;-69
2022/10/02 12:16:34;;;;;;;;;2.75;1.25;;;27.88;100463.15;;;;117439;1190;25333;-70
2022/10/02 12:19:05;;;;;;;;;2.00;2.00;;;27.87;100464.04;;;;117476;1189;24975;-65
2022/10/02 12:27:42;;;;;;;;;2.00;2.00;;;27.88;100452.63;;;;117385;1190;25057;-64
2022/10/02 12:30:48;;;;;;;;;4.00;2.67;;;27.84;100457.25;;;;117440;1188;25476;-64
2022/10/02 12:33:37;;;;;;;;;2.00;2.00;;;27.87;100467.61;;;;117389;1189;25094;-64
2022/10/02 12:36:17;;;;;;;;;2.00;1.50;;;27.86;100470.71;;;;117447;1189;25110;-64
2022/10/02 12:39:18;;;;;;;;;3.00;2.00;;;27.82;100478.77;;;;117444;1189;25515;-64
2022/10/02 12:41:51;;;;;;;;;3.00;3.00;;;27.83;100480.43;;;;117446;1190;25356;-65
2022/10/02 12:44:43;;;;;;;;;1.00;1.00;;;27.79;100480.73;;;;117465;1189;25519;-65
2022/10/02 12:47:20;;;;;;;;;3.00;2.25;;;27.80;100480.52;;;;117456;1189;26062;-64
2022/10/02 12:50:02;;;;;;;;;2.50;2.50;;;27.78;100483.51;;;;117489;1189;25613;-65
2022/10/02 12:53:06;;;;;;;;;2.50;2.00;;;27.77;100478.91;;;;117877;1187;25198;-64
2022/10/02 12:55:55;;;;;;;;;1.67;1.67;;;27.80;100483.02;;;;117593;1186;25707;-63
2022/10/02 12:58:39;;;;;;;;;2.00;1.33;;;27.81;100477.67;;;;117448;1189;24850;-64
2022/10/02 13:01:20;;;;;;;;;1.00;1.00;;;27.79;100486.48;;;;117414;1189;25184;-66
2022/10/02 13:03:57;;;;;;;;;2.25;1.00;;;27.76;100490.52;;;;117456;1188;24836;-66
2022/10/02 13:07:12;;;;;;;;;1.33;1.00;;;27.77;100501.08;;;;117420;1189;25162;-64
2022/10/02 13:09:49;;;;;;;;;3.25;2.00;;;27.86;100502.30;;;;117291;1189;25668;-65
2022/10/02 13:12:54;;;;;;;;;0.50;0.50;;;27.92;100505.27;;;;117430;1189;25278;-65
2022/10/02 13:15:37;;;;;;;;;1.00;1.00;;;27.87;100502.52;;;;117410;1189;24861;-64
2022/10/02 13:18:28;;;;;;;;;1.00;1.00;;;27.83;100496.19;;;;117433;1189;25241;-64
2022/10/02 13:21:08;;;;;;;;;1.50;1.50;;;27.79;100493.59;;;;117464;1189;25290;-65
2022/10/02 13:23:43;;;;;;;;;1.33;1.33;;;27.80;100485.76;;;;117463;1190;25475;-64